createdAt,value
2023-03-30T00:01:28.769Z,101011.69
2023-03-30T00:03:56.489Z,101009.06
2023-03-30T00:06:24.383Z,101004.72
2023-03-30T00:08:57.041Z,101014.22
2023-03-30T00:11:25.688Z,101003.88
2023-03-30T00:13:52.976Z,101014.13
2023-03-30T00:16:21.746Z,100996.84
2023-03-30T00:18:50.569Z,100994.00
2023-03-30T00:21:18.422Z,100994.84
2023-03-30T00:23:48.703Z,100993.94
2023-03-30T00:26:16.932Z,100990.25
2023-03-30T00:28:44.201Z,100996.16
2023-03-30T00:31:11.609Z,100991.62
2023-03-30T00:33:46.465Z,100991.34
2023-03-30T00:36:15.772Z,100990.00
2023-03-30T00:38:44.101Z,100990.06
2023-03-30T00:41:12.350Z,100989.28
2023-03-30T00:43:59.965Z,100991.09
2023-03-30T00:46:29.672Z,100980.00
2023-03-30T00:49:00.423Z,100982.44
2023-03-30T00:51:28.753Z,100980.69
2023-03-30T00:54:00.373Z,100983.22
2023-03-30T00:56:29.667Z,100977.72
2023-03-30T00:58:57.306Z,100967.97
2023-03-30T01:01:28.809Z,100975.84
2023-03-30T01:04:02.260Z,100964.28
2023-03-30T01:06:31.680Z,100957.38
2023-03-30T01:08:59.314Z,100953.09
2023-03-30T01:11:27.053Z,100944.53
2023-03-30T01:13:59.637Z,100941.00
2023-03-30T01:16:35.105Z,100947.88
2023-03-30T01:19:39.903Z,100950.72
2023-03-30T01:22:16.908Z,100938.50
2023-03-30T01:25:03.056Z,100933.56
2023-03-30T01:28:07.810Z,100928.63
2023-03-30T01:30:52.913Z,100925.09
2023-03-30T01:33:51.676Z,100916.72
2023-03-30T01:36:41.801Z,100914.94
2023-03-30T01:39:35.148Z,100913.41
2023-03-30T01:42:05.397Z,100909.38
2023-03-30T01:44:40.834Z,100920.06
2023-03-30T01:47:26.680Z,100910.56
2023-03-30T01:50:12.016Z,100914.44
2023-03-30T01:53:00.213Z,100917.12
2023-03-30T01:55:35.632Z,100923.34
2023-03-30T01:58:10.515Z,100914.03
2023-03-30T02:00:40.950Z,100908.91
2023-03-30T02:03:13.503Z,100910.84
2023-03-30T02:05:42.805Z,100910.84
2023-03-30T02:08:17.231Z,100903.34
2023-03-30T02:10:45.819Z,100899.88
2023-03-30T02:13:13.830Z,100891.88
2023-03-30T02:15:50.467Z,100901.66
2023-03-30T02:18:20.170Z,100895.91
2023-03-30T02:20:49.465Z,100900.12
2023-03-30T02:23:18.678Z,100904.53
2023-03-30T02:25:46.559Z,100893.41
2023-03-30T02:28:14.026Z,100888.06
2023-03-30T02:30:43.932Z,100873.66
2023-03-30T02:33:26.742Z,100883.25
2023-03-30T02:36:11.052Z,100881.41
2023-03-30T02:38:44.305Z,100885.66
2023-03-30T02:41:37.738Z,100877.84
2023-03-30T02:44:21.058Z,100889.00
2023-03-30T02:46:51.338Z,100893.69
2023-03-30T02:49:22.507Z,100898.16
2023-03-30T02:51:53.917Z,100887.56
2023-03-30T02:54:32.359Z,100884.59
2023-03-30T02:57:34.085Z,100874.19
2023-03-30T03:00:30.601Z,100880.28
2023-03-30T03:03:03.410Z,100881.63
2023-03-30T03:05:32.541Z,100877.97
2023-03-30T03:08:00.684Z,100886.97
2023-03-30T03:10:27.797Z,100879.03
2023-03-30T03:12:54.919Z,100888.47
2023-03-30T03:15:22.423Z,100883.94
2023-03-30T03:17:51.563Z,100888.91
2023-03-30T03:20:19.281Z,100891.50
2023-03-30T03:22:46.729Z,100896.09
2023-03-30T03:25:13.944Z,100903.03
2023-03-30T03:27:41.605Z,100894.72
2023-03-30T03:30:11.129Z,100899.44
2023-03-30T03:32:39.125Z,100894.34
2023-03-30T03:35:06.487Z,100893.63
2023-03-30T03:37:34.860Z,100895.53
2023-03-30T03:40:05.436Z,100913.84
2023-03-30T03:42:32.907Z,100906.72
2023-03-30T03:45:00.911Z,100906.16
2023-03-30T03:47:28.279Z,100906.38
2023-03-30T03:49:55.629Z,100904.00
2023-03-30T03:52:23.363Z,100903.16
2023-03-30T03:54:50.462Z,100897.00
2023-03-30T03:57:17.771Z,100883.56
2023-03-30T03:59:45.206Z,100874.31
2023-03-30T04:02:13.459Z,100872.41
2023-03-30T04:04:40.992Z,100872.88
2023-03-30T04:07:08.140Z,100870.84
2023-03-30T04:09:35.698Z,100867.97
2023-03-30T04:12:04.244Z,100865.06
2023-03-30T04:14:31.832Z,100865.25
2023-03-30T04:16:59.029Z,100868.00
2023-03-30T04:19:27.753Z,100871.63
2023-03-30T04:21:55.623Z,100862.94
2023-03-30T04:24:22.927Z,100859.25
2023-03-30T04:26:51.242Z,100867.97
2023-03-30T04:29:20.749Z,100878.47
2023-03-30T04:31:50.832Z,100872.34
2023-03-30T04:34:21.813Z,100878.41
2023-03-30T04:36:49.600Z,100879.31
2023-03-30T04:39:18.321Z,100872.47
2023-03-30T04:41:46.392Z,100868.81
2023-03-30T04:44:13.868Z,100867.72
2023-03-30T04:46:41.638Z,100854.28
2023-03-30T04:49:09.432Z,100858.31
2023-03-30T04:51:37.596Z,100848.59
2023-03-30T04:54:06.037Z,100848.44
2023-03-30T04:56:34.725Z,100846.00
2023-03-30T04:59:02.371Z,100843.22
2023-03-30T05:01:30.958Z,100839.78
2023-03-30T05:03:58.602Z,100838.00
2023-03-30T05:06:27.208Z,100843.44
2023-03-30T05:08:54.492Z,100841.00
2023-03-30T05:11:22.494Z,100842.81
2023-03-30T05:13:54.027Z,100849.12
2023-03-30T05:16:22.358Z,100841.78
2023-03-30T05:18:51.750Z,100845.91
2023-03-30T05:21:19.601Z,100841.94
2023-03-30T05:23:47.110Z,100845.78
2023-03-30T05:26:16.234Z,100842.03
2023-03-30T05:28:44.535Z,100847.44
2023-03-30T05:31:12.201Z,100852.06
2023-03-30T05:33:41.988Z,100864.56
2023-03-30T05:36:12.446Z,100870.13
2023-03-30T05:38:40.541Z,100856.88
2023-03-30T05:41:09.614Z,100846.87
2023-03-30T05:43:37.286Z,100844.34
2023-03-30T05:46:06.829Z,100845.44
2023-03-30T05:48:34.540Z,100855.06
2023-03-30T05:51:02.651Z,100858.69
2023-03-30T05:53:30.520Z,100855.59
2023-03-30T05:55:57.873Z,100861.41
2023-03-30T05:58:25.138Z,100850.53
2023-03-30T06:00:54.205Z,100854.88
2023-03-30T06:03:22.170Z,100846.31
2023-03-30T06:05:49.441Z,100844.88
2023-03-30T06:08:16.560Z,100848.06
2023-03-30T06:10:52.593Z,100838.06
2023-03-30T06:13:19.822Z,100852.00
2023-03-30T06:15:47.376Z,100830.88
2023-03-30T06:18:15.866Z,100830.94
2023-03-30T06:20:47.427Z,100820.13
2023-03-30T06:23:15.597Z,100820.31
2023-03-30T06:25:46.794Z,100809.47
2023-03-30T06:28:14.221Z,100809.28
2023-03-30T06:30:42.423Z,100814.41
2023-03-30T06:33:10.202Z,100809.38
2023-03-30T06:35:38.061Z,100802.87
2023-03-30T06:38:05.904Z,100806.28
2023-03-30T06:40:33.045Z,100805.28
2023-03-30T06:43:01.078Z,100800.59
2023-03-30T06:45:29.189Z,100801.19
2023-03-30T06:47:56.507Z,100799.31
2023-03-30T06:50:24.245Z,100800.56
2023-03-30T06:52:52.410Z,100813.03
2023-03-30T06:55:19.993Z,100806.25
2023-03-30T06:57:47.198Z,100807.91
2023-03-30T07:00:15.391Z,100805.88
2023-03-30T07:02:46.961Z,100813.25
2023-03-30T07:05:16.202Z,100816.69
2023-03-30T07:07:46.534Z,100828.75
2023-03-30T07:10:13.843Z,100841.66
2023-03-30T07:12:41.901Z,100837.88
2023-03-30T07:15:10.011Z,100835.72
2023-03-30T07:17:37.548Z,100835.62
2023-03-30T07:20:07.708Z,100831.69
2023-03-30T07:22:35.904Z,100828.22
2023-03-30T07:25:04.171Z,100817.91
2023-03-30T07:27:31.936Z,100816.78
2023-03-30T07:30:10.408Z,100809.41
2023-03-30T07:32:46.631Z,100817.47
2023-03-30T07:35:13.856Z,100833.78
2023-03-30T07:37:41.336Z,100831.75
2023-03-30T07:40:09.931Z,100814.81
2023-03-30T07:42:38.604Z,100823.63
2023-03-30T07:45:06.339Z,100811.78
2023-03-30T07:47:33.988Z,100818.34
2023-03-30T07:50:01.433Z,100822.38
2023-03-30T07:52:28.645Z,100815.97
2023-03-30T07:54:56.472Z,100821.28
2023-03-30T07:57:24.116Z,100822.97
2023-03-30T07:59:51.516Z,100820.50
2023-03-30T08:02:19.611Z,100823.94
2023-03-30T08:04:47.707Z,100826.50
2023-03-30T08:07:16.693Z,100812.22
2023-03-30T08:09:45.886Z,100814.09
2023-03-30T08:12:13.373Z,100805.84
2023-03-30T08:14:40.715Z,100801.19
2023-03-30T08:17:07.998Z,100799.22
2023-03-30T08:19:35.448Z,100796.53
2023-03-30T08:22:03.198Z,100788.88
2023-03-30T08:24:30.826Z,100800.03
2023-03-30T08:26:58.259Z,100807.34
2023-03-30T08:29:25.431Z,100795.41
2023-03-30T08:31:52.779Z,100794.53
2023-03-30T08:34:20.313Z,100794.62
2023-03-30T08:36:47.396Z,100794.25
2023-03-30T08:39:15.569Z,100791.06
2023-03-30T08:41:46.161Z,100791.69
2023-03-30T08:44:33.570Z,100793.53
2023-03-30T08:47:04.345Z,100793.06
2023-03-30T08:49:36.185Z,100799.31
2023-03-30T08:52:05.476Z,100791.84
2023-03-30T08:54:33.679Z,100792.75
2023-03-30T08:57:09.945Z,100789.53
2023-03-30T08:59:53.524Z,100789.37
2023-03-30T09:02:31.123Z,100788.06
2023-03-30T09:05:07.870Z,100783.16
2023-03-30T09:08:06.825Z,100779.19
2023-03-30T09:10:38.185Z,100765.09
2023-03-30T09:13:06.613Z,100768.66
2023-03-30T09:15:36.189Z,100766.63
2023-03-30T09:18:23.173Z,100771.38
2023-03-30T09:20:52.675Z,100764.34
2023-03-30T09:23:19.930Z,100773.25
2023-03-30T09:26:17.595Z,100771.84
2023-03-30T09:29:15.887Z,100756.53
2023-03-30T09:31:51.010Z,100754.03
2023-03-30T09:34:31.052Z,100749.28
2023-03-30T09:37:04.393Z,100750.81
2023-03-30T09:39:34.613Z,100747.34
2023-03-30T09:42:36.974Z,100739.41
2023-03-30T09:45:27.566Z,100738.50
2023-03-30T09:47:54.788Z,100730.38
2023-03-30T09:50:27.666Z,100735.19
2023-03-30T09:53:03.527Z,100724.28
2023-03-30T09:55:33.707Z,100716.53
2023-03-30T09:58:20.485Z,100714.03
2023-03-30T10:01:12.510Z,100716.72
2023-03-30T10:03:42.045Z,100705.31
2023-03-30T10:06:18.849Z,100702.69
2023-03-30T10:08:55.111Z,100692.94
2023-03-30T10:11:33.945Z,100696.16
2023-03-30T10:14:01.489Z,100700.59
2023-03-30T10:16:32.541Z,100693.38
2023-03-30T10:19:01.884Z,100690.53
2023-03-30T10:21:37.468Z,100688.91
2023-03-30T10:24:11.284Z,100696.50
2023-03-30T10:26:38.975Z,100680.16
2023-03-30T10:29:11.260Z,100680.03
2023-03-30T10:31:40.077Z,100676.94
2023-03-30T10:34:15.939Z,100676.72
2023-03-30T10:36:49.238Z,100672.00
2023-03-30T10:39:23.074Z,100659.16
2023-03-30T10:41:51.081Z,100661.50
2023-03-30T10:44:31.049Z,100654.69
2023-03-30T10:47:37.879Z,100656.47
2023-03-30T10:50:23.253Z,100643.66
2023-03-30T10:53:09.089Z,100644.03
2023-03-30T10:56:03.874Z,100633.31
2023-03-30T10:58:43.513Z,100636.31
2023-03-30T11:01:26.042Z,100634.41
2023-03-30T11:04:12.425Z,100632.97
2023-03-30T11:06:49.740Z,100635.12
2023-03-30T11:09:21.737Z,100634.38
2023-03-30T11:11:56.767Z,100628.28
2023-03-30T11:14:43.015Z,100624.25
2023-03-30T11:17:20.360Z,100619.16
2023-03-30T11:19:50.656Z,100628.91
2023-03-30T11:22:38.729Z,100624.25
2023-03-30T11:25:20.286Z,100617.63
2023-03-30T11:28:28.450Z,100622.16
2023-03-30T11:31:01.450Z,100618.59
2023-03-30T11:33:31.520Z,100608.94
2023-03-30T11:36:11.305Z,100606.31
2023-03-30T11:38:47.263Z,100609.53
2023-03-30T11:41:17.029Z,100589.66
2023-03-30T11:43:44.235Z,100590.28
2023-03-30T11:46:16.584Z,100589.06
2023-03-30T11:48:58.523Z,100586.72
2023-03-30T11:52:04.623Z,100585.94
2023-03-30T11:55:02.462Z,100584.59
2023-03-30T11:57:54.217Z,100581.31
2023-03-30T12:00:36.905Z,100567.62
2023-03-30T12:03:37.120Z,100569.78
2023-03-30T12:06:27.123Z,100558.78
2023-03-30T12:09:23.424Z,100553.47
2023-03-30T12:12:11.976Z,100552.47
2023-03-30T12:14:45.899Z,100546.66
2023-03-30T12:17:25.725Z,100545.78
2023-03-30T12:20:09.947Z,100535.50
2023-03-30T12:22:37.505Z,100532.63
2023-03-30T12:25:14.964Z,100529.16
2023-03-30T12:28:11.146Z,100520.50
2023-03-30T12:31:00.131Z,100513.72
2023-03-30T12:33:35.949Z,100504.56
2023-03-30T12:36:43.013Z,100510.47
2023-03-30T12:39:25.955Z,100503.94
2023-03-30T12:42:14.811Z,100494.44
2023-03-30T12:44:54.152Z,100495.56
2023-03-30T12:48:02.974Z,100497.91
2023-03-30T12:50:30.259Z,100490.84
2023-03-30T12:53:16.240Z,100486.28
2023-03-30T12:55:55.710Z,100477.19
2023-03-30T12:58:28.884Z,100472.84
2023-03-30T13:01:14.413Z,100464.88
2023-03-30T13:03:49.462Z,100464.03
2023-03-30T13:06:21.673Z,100457.03
2023-03-30T13:08:54.231Z,100461.13
2023-03-30T13:11:22.796Z,100452.97
2023-03-30T13:13:53.218Z,100455.31
2023-03-30T13:16:47.937Z,100455.94
2023-03-30T13:19:21.348Z,100450.69
2023-03-30T13:21:50.694Z,100448.34
2023-03-30T13:24:24.446Z,100442.78
2023-03-30T13:26:51.803Z,100438.19
2023-03-30T13:29:19.348Z,100433.91
2023-03-30T13:31:59.624Z,100426.38
2023-03-30T13:35:06.156Z,100426.94
2023-03-30T13:37:46.910Z,100430.13
2023-03-30T13:40:41.489Z,100428.28
2023-03-30T13:43:30.830Z,100425.97
2023-03-30T13:46:17.883Z,100421.03
2023-03-30T13:48:54.769Z,100416.31
2023-03-30T13:51:25.713Z,100422.81
2023-03-30T13:54:13.806Z,100420.09
2023-03-30T13:56:48.087Z,100413.34
2023-03-30T13:59:21.737Z,100410.81
2023-03-30T14:01:53.365Z,100399.28
2023-03-30T14:04:20.856Z,100397.31
2023-03-30T14:06:51.464Z,100385.97
2023-03-30T14:09:20.318Z,100387.91
2023-03-30T14:11:53.699Z,100392.78
2023-03-30T14:14:30.089Z,100385.41
2023-03-30T14:16:59.290Z,100384.78
2023-03-30T14:19:36.940Z,100365.34
2023-03-30T14:22:17.117Z,100364.25
2023-03-30T14:25:05.497Z,100361.34
2023-03-30T14:27:36.130Z,100347.81
2023-03-30T14:30:29.434Z,100346.56
2023-03-30T14:33:15.041Z,100334.59
2023-03-30T14:35:45.759Z,100324.97
2023-03-30T14:38:37.678Z,100318.09
2023-03-30T14:41:30.197Z,100306.25
2023-03-30T14:44:03.637Z,100300.97
2023-03-30T14:46:48.842Z,100297.69
2023-03-30T14:49:27.708Z,100285.53
2023-03-30T14:52:21.551Z,100277.75
2023-03-30T14:55:05.189Z,100276.62
2023-03-30T14:57:38.268Z,100267.13
2023-03-30T15:00:18.129Z,100262.66
2023-03-30T15:02:46.452Z,100258.66
2023-03-30T15:05:16.977Z,100254.09
2023-03-30T15:07:48.299Z,100255.06
2023-03-30T15:10:34.163Z,100249.38
2023-03-30T15:13:02.644Z,100247.06
2023-03-30T15:15:32.017Z,100232.84
2023-03-30T15:18:00.321Z,100228.66
2023-03-30T15:20:29.759Z,100218.03
2023-03-30T15:22:57.534Z,100223.28
2023-03-30T15:25:30.899Z,100221.09
2023-03-30T15:28:04.603Z,100221.88
2023-03-30T15:30:38.700Z,100224.00
2023-03-30T15:33:07.517Z,100224.06
2023-03-30T15:35:36.393Z,100228.88
2023-03-30T15:38:14.077Z,100232.91
2023-03-30T15:40:43.627Z,100243.53
2023-03-30T15:43:25.783Z,100249.44
2023-03-30T15:45:56.437Z,100261.22
2023-03-30T15:48:24.508Z,100267.00
2023-03-30T15:50:55.638Z,100269.31
2023-03-30T15:53:33.106Z,100283.06
2023-03-30T15:56:00.626Z,100285.06
2023-03-30T15:58:28.775Z,100273.44
2023-03-30T16:00:56.556Z,100272.66
2023-03-30T16:03:40.653Z,100262.09
2023-03-30T16:06:12.147Z,100267.59
2023-03-30T16:08:46.245Z,100266.12
2023-03-30T16:11:16.169Z,100265.94
2023-03-30T16:13:48.279Z,100264.97
2023-03-30T16:16:18.055Z,100263.09
2023-03-30T16:18:45.701Z,100250.13
2023-03-30T16:21:13.182Z,100244.53
2023-03-30T16:23:40.709Z,100242.97
2023-03-30T16:26:09.979Z,100229.78
2023-03-30T16:28:37.243Z,100238.62
2023-03-30T16:31:18.532Z,100236.91
2023-03-30T16:33:46.148Z,100245.88
2023-03-30T16:36:18.379Z,100244.66
2023-03-30T16:38:45.987Z,100240.44
2023-03-30T16:41:17.374Z,100234.66
2023-03-30T16:43:44.752Z,100233.78
2023-03-30T16:46:18.000Z,100219.87
2023-03-30T16:48:46.517Z,100218.91
2023-03-30T16:51:15.456Z,100222.72
2023-03-30T16:53:43.052Z,100235.38
2023-03-30T16:56:16.319Z,100239.72
2023-03-30T16:58:43.990Z,100238.06
2023-03-30T17:01:13.392Z,100243.69
2023-03-30T17:03:40.598Z,100248.41
2023-03-30T17:06:08.346Z,100247.03
2023-03-30T17:08:35.600Z,100247.25
2023-03-30T17:11:04.938Z,100245.16
2023-03-30T17:13:32.806Z,100236.63
2023-03-30T17:16:01.222Z,100236.09
2023-03-30T17:18:29.338Z,100232.88
2023-03-30T17:20:58.576Z,100229.12
2023-03-30T17:23:28.379Z,100231.13
2023-03-30T17:25:57.472Z,100230.37
2023-03-30T17:28:27.440Z,100233.31
2023-03-30T17:30:57.388Z,100220.97
2023-03-30T17:33:26.148Z,100216.81
2023-03-30T17:35:56.433Z,100227.88
2023-03-30T17:38:24.047Z,100216.09
2023-03-30T17:40:51.809Z,100216.81
2023-03-30T17:43:18.972Z,100222.03
2023-03-30T17:45:47.226Z,100215.97
2023-03-30T17:48:17.533Z,100215.34
2023-03-30T17:50:47.817Z,100205.88
2023-03-30T17:53:17.377Z,100210.88
2023-03-30T17:55:46.675Z,100205.97
2023-03-30T17:58:24.548Z,100192.22
2023-03-30T18:00:52.917Z,100179.50
2023-03-30T18:03:22.770Z,100190.53
2023-03-30T18:05:50.527Z,100195.97
2023-03-30T18:08:23.923Z,100212.97
2023-03-30T18:10:56.692Z,100220.13
2023-03-30T18:13:24.974Z,100219.94
2023-03-30T18:15:54.782Z,100218.06
2023-03-30T18:18:25.128Z,100225.16
2023-03-30T18:20:56.572Z,100229.69
2023-03-30T18:23:25.561Z,100231.69
2023-03-30T18:25:53.013Z,100244.47
2023-03-30T18:28:22.689Z,100260.19
2023-03-30T18:30:51.153Z,100289.56
2023-03-30T18:33:21.546Z,100288.16
2023-03-30T18:35:50.620Z,100283.78
2023-03-30T18:38:20.372Z,100275.06
2023-03-30T18:40:50.204Z,100289.38
2023-03-30T18:43:17.786Z,100278.94
2023-03-30T18:45:49.495Z,100281.28
2023-03-30T18:48:19.818Z,100275.31
2023-03-30T18:50:54.877Z,100273.84
2023-03-30T18:53:28.129Z,100267.47
2023-03-30T18:55:58.013Z,100264.03
2023-03-30T18:58:27.816Z,100258.69
2023-03-30T19:00:55.837Z,100250.53
2023-03-30T19:03:24.218Z,100234.06
2023-03-30T19:05:52.160Z,100223.53
2023-03-30T19:08:21.609Z,100205.12
2023-03-30T19:10:50.986Z,100203.19
2023-03-30T19:13:21.008Z,100187.56
2023-03-30T19:15:49.951Z,100190.97
2023-03-30T19:18:17.993Z,100201.78
2023-03-30T19:20:46.093Z,100219.63
2023-03-30T19:23:15.649Z,100210.75
2023-03-30T19:25:44.197Z,100194.09
2023-03-30T19:28:12.267Z,100199.31
2023-03-30T19:30:40.381Z,100199.13
2023-03-30T19:33:11.950Z,100188.34
2023-03-30T19:35:41.379Z,100186.78
2023-03-30T19:38:09.163Z,100182.63
2023-03-30T19:40:39.797Z,100184.72
2023-03-30T19:43:07.750Z,100207.63
2023-03-30T19:45:35.053Z,100210.66
2023-03-30T19:48:02.477Z,100209.94
2023-03-30T19:50:30.524Z,100208.44
2023-03-30T19:52:59.482Z,100216.34
2023-03-30T19:55:27.190Z,100223.44
2023-03-30T19:57:54.721Z,100233.41
2023-03-30T20:00:21.915Z,100235.12
2023-03-30T20:02:51.836Z,100228.47
2023-03-30T20:05:20.736Z,100221.41
2023-03-30T20:07:48.700Z,100218.78
2023-03-30T20:10:20.405Z,100218.62
2023-03-30T20:12:49.449Z,100218.16
2023-03-30T20:15:18.030Z,100220.56
2023-03-30T20:17:45.539Z,100215.62
2023-03-30T20:20:16.934Z,100206.56
2023-03-30T20:22:44.725Z,100206.63
2023-03-30T20:25:13.765Z,100208.66
2023-03-30T20:27:41.539Z,100212.47
2023-03-30T20:30:09.698Z,100206.44
2023-03-30T20:32:37.004Z,100213.31
2023-03-30T20:35:05.861Z,100202.97
2023-03-30T20:37:33.879Z,100206.13
2023-03-30T20:40:04.922Z,100204.84
2023-03-30T20:42:32.628Z,100202.69
2023-03-30T20:45:01.037Z,100192.78
2023-03-30T20:47:31.077Z,100190.31
2023-03-30T20:49:59.441Z,100180.69
2023-03-30T20:52:27.248Z,100174.59
2023-03-30T20:54:54.689Z,100179.56
2023-03-30T20:57:23.717Z,100181.97
2023-03-30T20:59:53.015Z,100181.53
2023-03-30T21:02:20.523Z,100179.56
2023-03-30T21:04:48.120Z,100180.78
2023-03-30T21:07:16.369Z,100172.44
2023-03-30T21:09:43.629Z,100172.44
2023-03-30T21:12:11.428Z,100170.78
2023-03-30T21:14:38.827Z,100169.22
2023-03-30T21:17:06.173Z,100160.47
2023-03-30T21:19:33.728Z,100143.09
2023-03-30T21:22:01.192Z,100142.97
2023-03-30T21:24:28.562Z,100146.81
2023-03-30T21:26:56.273Z,100138.38
2023-03-30T21:29:23.572Z,100136.41
2023-03-30T21:31:50.946Z,100132.88
2023-03-30T21:34:18.889Z,100126.28
2023-03-30T21:36:46.585Z,100121.00
2023-03-30T21:39:14.192Z,100107.06
2023-03-30T21:41:41.724Z,100103.72
2023-03-30T21:44:08.848Z,100121.66
2023-03-30T21:46:36.176Z,100163.69
2023-03-30T21:49:03.700Z,100168.69
2023-03-30T21:51:31.550Z,100183.09
2023-03-30T21:53:59.138Z,100183.41
2023-03-30T21:56:29.185Z,100177.16
2023-03-30T21:58:57.425Z,100196.53
2023-03-30T22:01:25.674Z,100184.62
2023-03-30T22:03:54.213Z,100179.13
2023-03-30T22:06:22.505Z,100181.62
2023-03-30T22:08:49.604Z,100177.25
2023-03-30T22:11:22.553Z,100186.94
2023-03-30T22:13:50.666Z,100191.50
2023-03-30T22:16:31.446Z,100176.63
2023-03-30T22:18:58.679Z,100186.94
2023-03-30T22:21:29.328Z,100194.75
2023-03-30T22:23:56.504Z,100196.53
2023-03-30T22:26:23.698Z,100201.78
2023-03-30T22:28:51.156Z,100186.75
2023-03-30T22:31:18.361Z,100182.75
2023-03-30T22:33:45.792Z,100178.75
2023-03-30T22:36:19.321Z,100175.38
2023-03-30T22:38:47.947Z,100173.72
2023-03-30T22:41:15.899Z,100175.09
2023-03-30T22:43:43.044Z,100179.03
2023-03-30T22:46:11.103Z,100178.47
2023-03-30T22:48:41.472Z,100172.00
2023-03-30T22:51:09.005Z,100163.75
2023-03-30T22:53:36.097Z,100163.66
2023-03-30T22:56:03.841Z,100161.38
2023-03-30T22:58:31.175Z,100150.59
2023-03-30T23:01:02.497Z,100149.75
2023-03-30T23:03:30.170Z,100158.59
2023-03-30T23:06:01.178Z,100159.84
2023-03-30T23:08:29.965Z,100159.84
2023-03-30T23:11:04.442Z,100164.75
2023-03-30T23:13:37.161Z,100165.25
2023-03-30T23:16:08.808Z,100168.69
2023-03-30T23:18:36.463Z,100164.00
2023-03-30T23:21:06.318Z,100150.53
2023-03-30T23:23:36.316Z,100148.66
2023-03-30T23:26:08.977Z,100156.72
2023-03-30T23:28:39.877Z,100159.94
2023-03-30T23:31:09.239Z,100148.59
2023-03-30T23:33:36.914Z,100150.47
2023-03-30T23:36:06.420Z,100148.03
2023-03-30T23:38:34.051Z,100144.31
2023-03-30T23:41:01.598Z,100150.47
2023-03-30T23:43:28.718Z,100162.91
2023-03-30T23:45:55.846Z,100165.81
2023-03-30T23:48:23.380Z,100163.09
2023-03-30T23:50:50.874Z,100164.78
2023-03-30T23:53:19.734Z,100151.47
2023-03-30T23:55:50.184Z,100151.91
2023-03-30T23:58:18.271Z,100153.59
